createdAt,value
2019-02-17T00:00:50.857Z,71.94
2019-02-17T00:01:50.906Z,71.88
2019-02-17T00:02:50.833Z,71.56
2019-02-17T00:03:50.831Z,71.53
2019-02-17T00:04:50.813Z,71.67
2019-02-17T00:05:50.811Z,71.56
2019-02-17T00:06:50.810Z,72.29
2019-02-17T00:07:50.807Z,72.60
2019-02-17T00:08:50.798Z,72.39
2019-02-17T00:09:50.760Z,72.39
2019-02-17T00:10:50.750Z,71.91
2019-02-17T00:11:50.767Z,71.98
2019-02-17T00:12:50.741Z,72.19
2019-02-17T00:13:50.718Z,72.01
2019-02-17T00:14:50.709Z,71.88
2019-02-17T00:15:50.694Z,71.56
2019-02-17T00:16:50.712Z,71.98
2019-02-17T00:17:50.721Z,73.05
2019-02-17T00:18:50.685Z,72.63
2019-02-17T00:19:50.658Z,73.25
2019-02-17T00:20:50.635Z,73.05
2019-02-17T00:21:50.628Z,73.15
2019-02-17T00:22:50.618Z,72.94
2019-02-17T00:23:50.629Z,73.15
2019-02-17T00:24:50.620Z,72.63
2019-02-17T00:25:50.586Z,72.63
2019-02-17T00:26:50.586Z,72.42
2019-02-17T00:27:50.608Z,72.63
2019-02-17T00:28:59.153Z,73.05
2019-02-17T00:29:51.570Z,73.15
2019-02-17T00:30:50.555Z,72.84
2019-02-17T00:31:50.520Z,72.74
2019-02-17T00:32:50.556Z,72.74
2019-02-17T00:33:50.496Z,72.77
2019-02-17T00:34:50.486Z,72.42
2019-02-17T00:35:50.547Z,72.88
2019-02-17T00:36:50.466Z,72.46
2019-02-17T00:37:50.456Z,72.46
2019-02-17T00:38:50.469Z,72.67
2019-02-17T00:39:50.426Z,72.67
2019-02-17T00:40:50.452Z,72.46
2019-02-17T00:41:50.455Z,73.08
2019-02-17T00:42:50.426Z,73.15
2019-02-17T00:43:50.389Z,73.15
2019-02-17T00:44:50.385Z,73.08
2019-02-17T00:45:50.376Z,72.98
2019-02-17T00:46:50.355Z,72.94
2019-02-17T00:47:50.424Z,73.08
2019-02-17T00:48:50.357Z,72.74
2019-02-17T00:49:50.332Z,72.42
2019-02-17T00:50:50.341Z,72.98
2019-02-17T00:51:50.305Z,72.74
2019-02-17T00:52:50.326Z,72.77
2019-02-17T00:53:50.303Z,72.46
2019-02-17T00:54:50.292Z,72.56
2019-02-17T00:55:50.264Z,72.36
2019-02-17T00:56:50.254Z,73.01
2019-02-17T00:57:50.242Z,72.56
2019-02-17T00:58:50.255Z,72.91
2019-02-17T00:59:50.248Z,73.08
2019-02-17T01:00:50.208Z,72.98
2019-02-17T01:01:50.203Z,72.91
2019-02-17T01:02:50.187Z,72.88
2019-02-17T01:03:50.206Z,73.08
2019-02-17T01:04:50.169Z,73.01
2019-02-17T01:05:50.170Z,72.88
2019-02-17T01:06:50.164Z,72.77
2019-02-17T01:07:50.135Z,72.60
2019-02-17T01:08:50.149Z,72.80
2019-02-17T01:09:50.112Z,73.01
2019-02-17T01:10:50.104Z,72.91
2019-02-17T01:11:50.154Z,72.60
2019-02-17T01:12:50.086Z,72.80
2019-02-17T01:13:50.097Z,72.91
2019-02-17T01:14:50.058Z,73.11
2019-02-17T01:15:50.053Z,72.70
2019-02-17T01:16:50.103Z,73.36
2019-02-17T01:17:50.047Z,73.32
2019-02-17T01:18:50.034Z,73.57
2019-02-17T01:19:50.061Z,74.81
2019-02-17T01:20:50.017Z,74.19
2019-02-17T01:21:50.010Z,74.50
2019-02-17T01:22:50.031Z,74.50
2019-02-17T01:23:50.016Z,74.22
2019-02-17T01:24:49.983Z,74.40
2019-02-17T01:25:49.941Z,74.40
2019-02-17T01:26:49.936Z,74.19
2019-02-17T01:27:49.942Z,74.50
2019-02-17T01:28:49.998Z,74.81
2019-02-17T01:29:49.950Z,74.71
2019-02-17T01:30:49.913Z,74.29
2019-02-17T01:31:49.882Z,74.40
2019-02-17T01:32:49.863Z,74.60
2019-02-17T01:33:49.851Z,74.60
2019-02-17T01:34:49.882Z,74.60
2019-02-17T01:35:49.830Z,74.60
2019-02-17T01:36:49.821Z,74.71
2019-02-17T01:37:49.804Z,74.50
2019-02-17T01:38:49.799Z,74.40
2019-02-17T01:39:49.817Z,74.29
2019-02-17T01:40:49.792Z,74.19
2019-02-17T01:41:49.764Z,74.36
2019-02-17T01:42:49.758Z,74.19
2019-02-17T01:43:49.743Z,74.19
2019-02-17T01:44:49.761Z,74.19
2019-02-17T01:45:49.781Z,73.98
2019-02-17T01:46:49.731Z,74.19
2019-02-17T01:47:49.703Z,73.98
2019-02-17T01:48:49.694Z,74.50
2019-02-17T01:49:49.708Z,74.50
2019-02-17T01:50:49.667Z,74.29
2019-02-17T01:51:49.660Z,74.22
2019-02-17T01:52:49.662Z,74.32
2019-02-17T01:53:49.636Z,74.63
2019-02-17T01:54:49.648Z,74.32
2019-02-17T01:55:49.614Z,74.43
2019-02-17T01:56:49.609Z,74.53
2019-02-17T01:57:49.594Z,74.63
2019-02-17T01:58:49.615Z,74.53
2019-02-17T01:59:49.594Z,74.84
2019-02-17T02:00:49.556Z,74.98
2019-02-17T02:01:49.549Z,75.46
2019-02-17T02:02:49.541Z,75.29
2019-02-17T02:03:49.525Z,75.60
2019-02-17T02:04:49.594Z,75.50
2019-02-17T02:05:49.503Z,74.98
2019-02-17T02:06:49.491Z,75.60
2019-02-17T02:07:49.491Z,76.33
2019-02-17T02:08:49.477Z,76.33
2019-02-17T02:09:49.522Z,75.60
2019-02-17T02:10:49.446Z,75.50
2019-02-17T02:11:49.445Z,75.29
2019-02-17T02:12:49.427Z,75.09
2019-02-17T02:13:49.423Z,74.67
2019-02-17T02:14:49.435Z,75.19
2019-02-17T02:15:49.410Z,75.26
2019-02-17T02:16:49.381Z,75.60
2019-02-17T02:17:49.393Z,75.29
2019-02-17T02:18:49.396Z,75.26
2019-02-17T02:19:49.393Z,75.29
2019-02-17T02:20:49.348Z,75.19
2019-02-17T02:21:49.344Z,75.26
2019-02-17T02:22:49.323Z,75.50
2019-02-17T02:23:49.360Z,75.29
2019-02-17T02:24:49.352Z,75.40
2019-02-17T02:25:49.315Z,75.29
2019-02-17T02:26:49.303Z,75.19
2019-02-17T02:27:49.275Z,75.46
2019-02-17T02:28:49.253Z,75.40
2019-02-17T02:29:49.246Z,75.60
2019-02-17T02:30:49.287Z,74.98
2019-02-17T02:31:49.239Z,75.60
2019-02-17T02:32:49.213Z,75.50
2019-02-17T02:33:49.221Z,75.50
2019-02-17T02:34:49.191Z,75.29
2019-02-17T02:35:49.204Z,75.81
2019-02-17T02:36:49.167Z,75.50
2019-02-17T02:37:49.164Z,75.50
2019-02-17T02:38:49.178Z,75.29
2019-02-17T02:39:49.135Z,75.05
2019-02-17T02:40:49.146Z,74.88
2019-02-17T02:41:49.119Z,74.95
2019-02-17T02:42:49.106Z,74.43
2019-02-17T02:43:49.091Z,74.53
2019-02-17T02:44:49.096Z,74.32
2019-02-17T02:45:49.095Z,75.15
2019-02-17T02:46:49.063Z,75.05
2019-02-17T02:47:49.048Z,75.36
2019-02-17T02:48:49.037Z,75.46
2019-02-17T02:49:49.033Z,75.57
2019-02-17T02:50:49.060Z,76.40
2019-02-17T02:51:49.015Z,76.19
2019-02-17T02:52:49.005Z,76.29
2019-02-17T02:53:48.988Z,75.46
2019-02-17T02:54:48.980Z,75.57
2019-02-17T02:55:49.010Z,75.15
2019-02-17T02:56:48.976Z,75.26
2019-02-17T02:57:48.940Z,75.29
2019-02-17T02:58:48.933Z,75.19
2019-02-17T02:59:52.442Z,75.40
2019-02-17T03:00:48.935Z,75.15
2019-02-17T03:01:48.927Z,75.40
2019-02-17T03:02:48.930Z,75.50
2019-02-17T03:03:48.945Z,75.15
2019-02-17T03:04:48.914Z,74.98
2019-02-17T03:05:48.870Z,74.77
2019-02-17T03:06:48.893Z,74.57
2019-02-17T03:07:48.918Z,74.77
2019-02-17T03:08:48.842Z,74.77
2019-02-17T03:09:48.816Z,74.57
2019-02-17T03:10:48.803Z,74.88
2019-02-17T03:11:48.842Z,74.67
2019-02-17T03:12:48.805Z,74.57
2019-02-17T03:13:48.813Z,75.29
2019-02-17T03:14:48.776Z,75.29
2019-02-17T03:15:48.749Z,76.43
2019-02-17T03:16:48.758Z,75.60
2019-02-17T03:17:48.747Z,75.50
2019-02-17T03:18:48.714Z,75.29
2019-02-17T03:19:48.724Z,74.57
2019-02-17T03:20:48.690Z,74.46
2019-02-17T03:21:48.707Z,74.29
2019-02-17T03:22:48.666Z,74.77
2019-02-17T03:23:48.659Z,74.46
2019-02-17T03:24:48.648Z,75.60
2019-02-17T03:25:48.655Z,76.43
2019-02-17T03:26:48.668Z,76.12
2019-02-17T03:27:48.616Z,76.23
2019-02-17T03:28:48.603Z,76.43
2019-02-17T03:29:48.591Z,75.92
2019-02-17T03:30:56.869Z,76.37
2019-02-17T03:31:48.583Z,76.47
2019-02-17T03:32:48.583Z,76.12
2019-02-17T03:33:48.580Z,76.47
2019-02-17T03:34:48.541Z,75.29
2019-02-17T03:35:48.557Z,75.12
2019-02-17T03:36:48.518Z,75.12
2019-02-17T03:37:48.543Z,75.22
2019-02-17T03:38:48.510Z,75.01
2019-02-17T03:39:48.482Z,75.22
2019-02-17T03:40:48.473Z,74.46
2019-02-17T03:41:48.461Z,75.22
2019-02-17T03:42:48.458Z,75.43
2019-02-17T03:43:48.470Z,75.43
2019-02-17T03:44:48.436Z,75.74
2019-02-17T03:45:48.428Z,75.43
2019-02-17T03:46:48.415Z,75.32
2019-02-17T03:47:48.422Z,75.01
2019-02-17T03:48:48.385Z,75.32
2019-02-17T03:49:48.406Z,75.32
2019-02-17T03:50:48.365Z,75.54
2019-02-17T03:51:48.351Z,75.64
2019-02-17T03:52:48.340Z,75.22
2019-02-17T03:53:48.333Z,75.43
2019-02-17T03:54:48.324Z,75.22
2019-02-17T03:55:48.346Z,75.01
2019-02-17T03:56:48.301Z,75.43
2019-02-17T03:57:48.321Z,75.22
2019-02-17T03:58:48.287Z,75.12
2019-02-17T03:59:48.271Z,74.91
2019-02-17T04:00:48.260Z,74.49
2019-02-17T04:01:48.252Z,74.60
2019-02-17T04:02:48.266Z,75.01
2019-02-17T04:03:48.224Z,74.39
2019-02-17T04:04:48.215Z,74.60
2019-02-17T04:05:48.204Z,74.63
2019-02-17T04:06:48.197Z,74.80
2019-02-17T04:07:48.188Z,74.70
2019-02-17T04:08:48.395Z,74.60
2019-02-17T04:09:48.160Z,74.74
2019-02-17T04:10:48.153Z,74.95
2019-02-17T04:11:48.137Z,75.15
2019-02-17T04:12:48.129Z,75.57
2019-02-17T04:13:48.148Z,75.22
2019-02-17T04:14:48.102Z,75.12
2019-02-17T04:15:48.092Z,75.15
2019-02-17T04:16:48.083Z,75.26
2019-02-17T04:17:48.073Z,76.16
2019-02-17T04:18:48.091Z,76.40
2019-02-17T04:19:48.112Z,76.09
2019-02-17T04:20:48.040Z,76.29
2019-02-17T04:21:48.046Z,76.29
2019-02-17T04:22:48.029Z,76.19
2019-02-17T04:23:48.038Z,76.61
2019-02-17T04:24:48.000Z,76.40
2019-02-17T04:25:47.990Z,76.09
2019-02-17T04:26:47.983Z,76.51
2019-02-17T04:27:47.999Z,76.40
2019-02-17T04:28:47.970Z,76.40
2019-02-17T04:29:47.989Z,75.57
2019-02-17T04:30:47.936Z,75.05
2019-02-17T04:31:47.979Z,75.46
2019-02-17T04:32:47.913Z,75.46
2019-02-17T04:33:47.920Z,75.88
2019-02-17T04:34:47.915Z,76.19
2019-02-17T04:35:47.884Z,76.51
2019-02-17T04:36:47.862Z,76.12
2019-02-17T04:37:47.881Z,76.72
2019-02-17T04:38:47.862Z,76.95
2019-02-17T04:39:47.882Z,76.85
2019-02-17T04:40:47.827Z,76.85
2019-02-17T04:41:47.843Z,76.54
2019-02-17T04:42:47.805Z,76.75
2019-02-17T04:43:47.831Z,76.64
2019-02-17T04:44:47.821Z,76.75
2019-02-17T04:45:47.766Z,76.64
2019-02-17T04:46:47.815Z,76.64
2019-02-17T04:47:47.783Z,76.43
2019-02-17T04:48:47.726Z,76.85
2019-02-17T04:49:47.721Z,76.95
2019-02-17T04:50:47.719Z,77.27
2019-02-17T04:51:47.870Z,77.37
2019-02-17T04:52:47.693Z,76.75
2019-02-17T04:53:47.680Z,76.85
2019-02-17T04:54:47.705Z,77.48
2019-02-17T04:55:47.661Z,77.58
2019-02-17T04:56:47.660Z,77.79
2019-02-17T04:57:47.633Z,77.86
2019-02-17T04:58:47.617Z,77.37
2019-02-17T04:59:47.645Z,77.79
2019-02-17T05:00:49.907Z,77.79
2019-02-17T05:01:47.588Z,77.69
2019-02-17T05:02:47.590Z,77.75
2019-02-17T05:03:47.564Z,77.79
2019-02-17T05:04:47.557Z,77.23
2019-02-17T05:05:47.578Z,77.34
2019-02-17T05:06:47.534Z,77.37
2019-02-17T05:07:47.529Z,77.23
2019-02-17T05:08:47.541Z,77.23
2019-02-17T05:09:47.503Z,77.37
2019-02-17T05:10:47.521Z,76.92
2019-02-17T05:11:47.510Z,76.82
2019-02-17T05:12:47.478Z,76.61
2019-02-17T05:13:47.469Z,76.43
2019-02-17T05:14:47.445Z,76.33
2019-02-17T05:15:47.641Z,76.64
2019-02-17T05:16:47.423Z,76.33
2019-02-17T05:17:47.413Z,76.43
2019-02-17T05:18:47.407Z,76.75
2019-02-17T05:19:47.392Z,76.85
2019-02-17T05:20:47.377Z,77.37
2019-02-17T05:21:47.403Z,77.48
2019-02-17T05:22:47.389Z,77.48
2019-02-17T05:23:47.349Z,77.37
2019-02-17T05:24:47.348Z,77.16
2019-02-17T05:25:47.321Z,77.06
2019-02-17T05:26:47.344Z,76.75
2019-02-17T05:27:47.315Z,77.27
2019-02-17T05:28:47.299Z,77.16
2019-02-17T05:29:47.284Z,77.16
2019-02-17T05:30:52.781Z,76.75
2019-02-17T05:31:48.292Z,76.85
2019-02-17T05:32:47.257Z,76.43
2019-02-17T05:33:47.246Z,76.23
2019-02-17T05:34:47.228Z,76.23
2019-02-17T05:35:47.222Z,76.23
2019-02-17T05:36:47.228Z,76.33
2019-02-17T05:37:47.187Z,76.54
2019-02-17T05:38:47.189Z,76.43
2019-02-17T05:39:47.191Z,76.16
2019-02-17T05:40:47.203Z,76.16
2019-02-17T05:41:47.172Z,76.64
2019-02-17T05:42:47.209Z,76.68
2019-02-17T05:43:47.122Z,76.37
2019-02-17T05:44:47.116Z,76.26
2019-02-17T05:45:47.119Z,76.16
2019-02-17T05:46:47.093Z,76.37
2019-02-17T05:47:47.083Z,76.57
2019-02-17T05:48:47.103Z,76.89
2019-02-17T05:49:47.066Z,77.20
2019-02-17T05:50:47.118Z,76.92
2019-02-17T05:51:47.045Z,77.13
2019-02-17T05:52:47.047Z,77.96
2019-02-17T05:53:47.031Z,77.61
2019-02-17T05:54:47.008Z,78.59
2019-02-17T05:55:46.999Z,79.00
2019-02-17T05:56:46.990Z,78.69
2019-02-17T05:57:47.019Z,78.59
2019-02-17T05:58:46.979Z,78.59
2019-02-17T05:59:46.953Z,78.76
2019-02-17T06:00:46.997Z,78.55
2019-02-17T06:01:46.937Z,78.45
2019-02-17T06:02:46.944Z,78.59
2019-02-17T06:03:46.912Z,78.34
2019-02-17T06:04:46.894Z,78.55
2019-02-17T06:05:46.895Z,77.61
2019-02-17T06:06:46.874Z,77.51
2019-02-17T06:07:46.893Z,77.40
2019-02-17T06:08:46.854Z,77.61
2019-02-17T06:09:46.858Z,77.44
2019-02-17T06:10:46.839Z,77.72
2019-02-17T06:11:46.856Z,77.75
2019-02-17T06:12:46.811Z,77.61
2019-02-17T06:13:46.819Z,77.86
2019-02-17T06:14:46.787Z,78.86
2019-02-17T06:15:46.785Z,78.76
2019-02-17T06:16:46.784Z,78.66
2019-02-17T06:17:46.762Z,78.07
2019-02-17T06:18:46.773Z,78.76
2019-02-17T06:19:46.754Z,78.17
2019-02-17T06:20:46.733Z,77.96
2019-02-17T06:21:46.714Z,78.14
2019-02-17T06:22:46.708Z,77.83
2019-02-17T06:23:46.747Z,78.17
2019-02-17T06:24:46.689Z,78.03
2019-02-17T06:25:46.665Z,77.61
2019-02-17T06:26:46.657Z,77.75
2019-02-17T06:27:46.648Z,77.75
2019-02-17T06:28:46.657Z,78.14
2019-02-17T06:29:49.026Z,78.03
2019-02-17T06:30:46.618Z,78.07
2019-02-17T06:31:46.600Z,78.07
2019-02-17T06:32:46.591Z,78.90
2019-02-17T06:33:46.612Z,78.90
2019-02-17T06:34:46.565Z,78.90
2019-02-17T06:35:46.558Z,77.86
2019-02-17T06:36:46.564Z,78.76
2019-02-17T06:37:46.539Z,78.69
2019-02-17T06:38:46.527Z,79.21
2019-02-17T06:39:46.534Z,78.66
2019-02-17T06:40:46.540Z,79.00
2019-02-17T06:41:46.496Z,78.69
2019-02-17T06:42:46.481Z,78.80
2019-02-17T06:43:46.511Z,78.90
2019-02-17T06:44:46.455Z,78.69
2019-02-17T06:45:46.445Z,78.34
2019-02-17T06:46:46.437Z,78.59
2019-02-17T06:47:46.434Z,78.34
2019-02-17T06:48:46.435Z,78.55
2019-02-17T06:49:46.686Z,78.97
2019-02-17T06:50:46.395Z,79.00
2019-02-17T06:51:46.382Z,78.45
2019-02-17T06:52:46.370Z,78.14
2019-02-17T06:53:46.354Z,78.97
2019-02-17T06:54:46.372Z,78.55
2019-02-17T06:55:46.548Z,78.80
2019-02-17T06:56:46.331Z,78.66
2019-02-17T06:57:46.310Z,78.76
2019-02-17T06:58:46.305Z,78.55
2019-02-17T06:59:46.288Z,78.59
2019-02-17T07:00:46.283Z,78.55
2019-02-17T07:01:46.291Z,78.34
2019-02-17T07:02:46.278Z,78.34
2019-02-17T07:03:46.271Z,78.55
2019-02-17T07:04:46.278Z,78.38
2019-02-17T07:05:46.222Z,78.55
2019-02-17T07:06:46.211Z,78.66
2019-02-17T07:07:46.231Z,78.69
2019-02-17T07:08:46.210Z,78.86
2019-02-17T07:09:46.176Z,78.45
2019-02-17T07:10:46.188Z,79.07
2019-02-17T07:11:46.176Z,79.80
2019-02-17T07:12:46.156Z,80.01
2019-02-17T07:13:46.153Z,79.91
2019-02-17T07:14:46.126Z,79.80
2019-02-17T07:15:46.145Z,79.91
2019-02-17T07:16:46.099Z,80.01
2019-02-17T07:17:46.096Z,79.97
2019-02-17T07:18:46.088Z,79.38
2019-02-17T07:19:46.092Z,79.45
2019-02-17T07:20:46.054Z,79.55
2019-02-17T07:21:46.073Z,79.45
2019-02-17T07:22:46.037Z,78.83
2019-02-17T07:23:46.039Z,79.14
2019-02-17T07:24:46.115Z,78.89
2019-02-17T07:25:46.041Z,79.03
2019-02-17T07:26:46.003Z,78.69
2019-02-17T07:27:45.984Z,78.62
2019-02-17T07:28:46.003Z,78.52
2019-02-17T07:29:45.960Z,79.03
2019-02-17T07:30:45.985Z,79.10
2019-02-17T07:31:45.937Z,78.72
2019-02-17T07:32:45.943Z,79.03
2019-02-17T07:33:45.923Z,79.55
2019-02-17T07:34:45.907Z,79.35
2019-02-17T07:35:45.911Z,79.35
2019-02-17T07:36:45.912Z,79.10
2019-02-17T07:37:45.921Z,78.79
2019-02-17T07:38:45.900Z,78.89
2019-02-17T07:39:45.870Z,78.89
2019-02-17T07:40:45.874Z,78.89
2019-02-17T07:41:45.857Z,78.69
2019-02-17T07:42:45.835Z,78.58
2019-02-17T07:43:45.813Z,78.44
2019-02-17T07:44:45.810Z,79.21
2019-02-17T07:45:45.784Z,78.69
2019-02-17T07:46:45.835Z,78.79
2019-02-17T07:47:45.787Z,79.06
2019-02-17T07:48:45.781Z,79.31
2019-02-17T07:49:45.740Z,79.58
2019-02-17T07:50:45.728Z,79.48
2019-02-17T07:51:45.760Z,78.96
2019-02-17T07:52:45.718Z,78.75
2019-02-17T07:53:45.724Z,78.55
2019-02-17T07:54:45.729Z,78.86
2019-02-17T07:55:45.676Z,78.92
2019-02-17T07:56:45.703Z,78.09
2019-02-17T07:57:45.653Z,78.30
2019-02-17T07:58:45.646Z,78.30
2019-02-17T07:59:45.700Z,78.72
2019-02-17T08:00:45.627Z,78.41
2019-02-17T08:01:45.763Z,78.41
2019-02-17T08:02:45.601Z,78.51
2019-02-17T08:03:45.587Z,78.92
2019-02-17T08:04:45.605Z,77.99
2019-02-17T08:05:45.596Z,78.82
2019-02-17T08:06:45.585Z,78.41
2019-02-17T08:07:45.563Z,78.51
2019-02-17T08:08:45.564Z,78.82
2019-02-17T08:09:45.561Z,78.82
2019-02-17T08:10:45.517Z,78.89
2019-02-17T08:11:45.548Z,78.89
2019-02-17T08:12:45.522Z,78.78
2019-02-17T08:13:45.543Z,78.78
2019-02-17T08:14:45.477Z,78.68
2019-02-17T08:15:45.488Z,78.78
2019-02-17T08:16:45.478Z,78.86
2019-02-17T08:17:45.478Z,78.58
2019-02-17T08:18:45.444Z,79.06
2019-02-17T08:19:45.427Z,78.75
2019-02-17T08:20:45.405Z,78.65
2019-02-17T08:21:45.399Z,78.44
2019-02-17T08:22:45.408Z,78.55
2019-02-17T08:23:45.384Z,78.75
2019-02-17T08:24:45.440Z,79.03
2019-02-17T08:25:45.348Z,78.51
2019-02-17T08:26:45.343Z,78.30
2019-02-17T08:27:45.326Z,78.72
2019-02-17T08:28:45.413Z,77.99
2019-02-17T08:29:45.315Z,78.20
2019-02-17T08:30:45.298Z,77.95
2019-02-17T08:31:54.845Z,78.20
2019-02-17T08:32:46.308Z,78.27
2019-02-17T08:33:45.284Z,78.06
2019-02-17T08:34:45.254Z,77.85
2019-02-17T08:35:45.312Z,78.06
2019-02-17T08:36:45.235Z,78.23
2019-02-17T08:37:45.251Z,78.54
2019-02-17T08:38:45.252Z,78.44
2019-02-17T08:39:45.260Z,78.64
2019-02-17T08:40:45.217Z,77.92
2019-02-17T08:41:45.227Z,78.12
2019-02-17T08:42:45.188Z,78.19
2019-02-17T08:43:45.301Z,77.98
2019-02-17T08:44:45.168Z,78.30
2019-02-17T08:45:45.168Z,78.61
2019-02-17T08:46:45.299Z,78.50
2019-02-17T08:47:45.141Z,77.53
2019-02-17T08:48:45.104Z,78.50
2019-02-17T08:49:45.090Z,78.26
2019-02-17T08:50:45.082Z,78.26
2019-02-17T08:51:45.095Z,78.26
2019-02-17T08:52:45.103Z,77.53
2019-02-17T08:53:45.068Z,77.39
2019-02-17T08:54:45.039Z,77.50
2019-02-17T08:55:45.029Z,77.09
2019-02-17T08:56:45.040Z,77.09
2019-02-17T08:57:45.007Z,76.78
2019-02-17T08:58:45.288Z,76.36
2019-02-17T08:59:45.005Z,77.19
2019-02-17T09:00:44.972Z,77.09
2019-02-17T09:01:44.986Z,77.19
2019-02-17T09:02:45.002Z,76.88
2019-02-17T09:03:44.961Z,76.95
2019-02-17T09:04:44.947Z,76.88
2019-02-17T09:05:44.918Z,76.95
2019-02-17T09:06:44.912Z,76.64
2019-02-17T09:07:44.891Z,76.53
2019-02-17T09:08:44.908Z,76.53
2019-02-17T09:09:44.873Z,76.39
2019-02-17T09:10:44.883Z,76.18
2019-02-17T09:11:44.850Z,75.98
2019-02-17T09:12:44.840Z,75.78
2019-02-17T09:13:44.835Z,75.88
2019-02-17T09:14:44.850Z,75.05
2019-02-17T09:15:44.804Z,75.15
2019-02-17T09:16:44.803Z,74.33
2019-02-17T09:17:44.789Z,74.12
2019-02-17T09:18:44.799Z,74.08
2019-02-17T09:19:44.788Z,74.40
2019-02-17T09:20:44.753Z,74.40
2019-02-17T09:21:44.760Z,74.19
2019-02-17T09:22:44.741Z,74.50
2019-02-17T09:23:44.727Z,74.08
2019-02-17T09:24:44.738Z,74.08
2019-02-17T09:25:44.727Z,73.88
2019-02-17T09:26:44.686Z,73.67
2019-02-17T09:27:44.688Z,73.02
2019-02-17T09:28:44.664Z,73.02
2019-02-17T09:29:44.698Z,73.22
2019-02-17T09:30:44.649Z,73.74
2019-02-17T09:31:44.639Z,73.02
2019-02-17T09:32:44.684Z,72.30
2019-02-17T09:33:44.617Z,72.81
2019-02-17T09:34:44.637Z,73.33
2019-02-17T09:35:44.589Z,72.19
2019-02-17T09:36:44.582Z,72.40
2019-02-17T09:37:44.594Z,72.88
2019-02-17T09:38:44.562Z,72.78
2019-02-17T09:39:44.592Z,72.67
2019-02-17T09:40:44.542Z,72.26
2019-02-17T09:41:44.531Z,72.47
2019-02-17T09:42:44.518Z,72.54
2019-02-17T09:43:45.698Z,72.26
2019-02-17T09:44:44.521Z,72.33
2019-02-17T09:45:44.487Z,72.02
2019-02-17T09:46:44.487Z,72.74
2019-02-17T09:47:44.459Z,71.81
2019-02-17T09:48:44.473Z,72.02
2019-02-17T09:49:44.439Z,72.13
2019-02-17T09:50:44.459Z,72.13
2019-02-17T09:51:44.419Z,72.85
2019-02-17T09:52:44.412Z,72.09
2019-02-17T09:53:44.395Z,71.78
2019-02-17T09:54:44.392Z,71.47
2019-02-17T09:55:44.407Z,72.40
2019-02-17T09:56:44.369Z,72.09
2019-02-17T09:57:44.356Z,71.68
2019-02-17T09:58:44.346Z,71.75
2019-02-17T09:59:44.340Z,71.47
2019-02-17T10:00:44.356Z,71.23
2019-02-17T10:01:44.314Z,71.64
2019-02-17T10:02:44.306Z,71.23
2019-02-17T10:03:44.291Z,71.23
2019-02-17T10:04:44.299Z,71.95
2019-02-17T10:05:44.280Z,70.62
2019-02-17T10:06:44.260Z,70.82
2019-02-17T10:07:44.258Z,70.62
2019-02-17T10:08:44.276Z,70.79
2019-02-17T10:09:44.232Z,70.58
2019-02-17T10:10:44.240Z,70.28
2019-02-17T10:11:44.217Z,69.96
2019-02-17T10:12:44.193Z,70.07
2019-02-17T10:13:44.182Z,69.62
2019-02-17T10:14:44.185Z,69.21
2019-02-17T10:15:44.192Z,69.21
2019-02-17T10:16:44.151Z,69.21
2019-02-17T10:17:44.146Z,69.49
2019-02-17T10:18:44.164Z,69.21
2019-02-17T10:19:44.134Z,68.59
2019-02-17T10:20:44.104Z,68.46
2019-02-17T10:21:44.121Z,68.05
2019-02-17T10:22:44.089Z,67.94
2019-02-17T10:23:44.115Z,68.02
2019-02-17T10:24:44.090Z,67.60
2019-02-17T10:25:44.054Z,67.30
2019-02-17T10:26:44.078Z,67.30
2019-02-17T10:27:44.081Z,67.40
2019-02-17T10:28:44.032Z,67.40
2019-02-17T10:29:44.005Z,67.71
2019-02-17T10:30:44.064Z,67.81
2019-02-17T10:31:44.009Z,67.06
2019-02-17T10:32:43.969Z,66.24
2019-02-17T10:33:43.973Z,66.75
2019-02-17T10:34:43.955Z,66.72
2019-02-17T10:35:43.940Z,66.10
2019-02-17T10:36:43.982Z,66.00
2019-02-17T10:37:43.915Z,66.00
2019-02-17T10:38:43.908Z,65.97
2019-02-17T10:39:43.899Z,65.77
2019-02-17T10:40:43.888Z,65.66
2019-02-17T10:41:43.890Z,65.86
2019-02-17T10:42:43.906Z,65.97
2019-02-17T10:43:43.863Z,65.63
2019-02-17T10:44:43.845Z,65.73
2019-02-17T10:45:43.829Z,65.77
2019-02-17T10:46:43.824Z,65.63
2019-02-17T10:47:43.818Z,65.32
2019-02-17T10:48:43.840Z,65.12
2019-02-17T10:49:43.796Z,64.91
2019-02-17T10:50:43.785Z,65.50
2019-02-17T10:51:43.768Z,64.78
2019-02-17T10:52:43.769Z,64.98
2019-02-17T10:53:43.742Z,64.98
2019-02-17T10:54:43.773Z,65.50
2019-02-17T10:55:43.735Z,64.78
2019-02-17T10:56:43.710Z,65.60
2019-02-17T10:57:43.723Z,64.75
2019-02-17T10:58:43.723Z,65.06
2019-02-17T10:59:43.695Z,65.06
2019-02-17T11:00:43.702Z,65.26
2019-02-17T11:01:43.657Z,65.26
2019-02-17T11:02:47.060Z,64.75
2019-02-17T11:03:43.644Z,64.95
2019-02-17T11:04:43.639Z,65.16
2019-02-17T11:05:43.625Z,64.95
2019-02-17T11:06:43.602Z,64.44
2019-02-17T11:07:43.593Z,63.21
2019-02-17T11:08:43.616Z,63.51
2019-02-17T11:09:43.578Z,64.03
2019-02-17T11:10:43.566Z,63.21
2019-02-17T11:11:43.542Z,63.62
2019-02-17T11:12:43.640Z,64.10
2019-02-17T11:13:43.530Z,63.28
2019-02-17T11:14:43.517Z,64.20
2019-02-17T11:15:43.502Z,63.69
2019-02-17T11:16:43.493Z,63.18
2019-02-17T11:17:43.516Z,63.35
2019-02-17T11:18:43.468Z,63.35
2019-02-17T11:19:43.456Z,63.46
2019-02-17T11:20:43.446Z,63.97
2019-02-17T11:21:43.435Z,62.95
2019-02-17T11:22:43.424Z,62.84
2019-02-17T11:23:43.441Z,62.92
2019-02-17T11:24:43.412Z,62.92
2019-02-17T11:25:43.498Z,62.10
2019-02-17T11:26:43.382Z,62.10
2019-02-17T11:27:43.375Z,62.40
2019-02-17T11:28:43.385Z,61.76
2019-02-17T11:29:43.399Z,61.86
2019-02-17T11:30:43.343Z,62.07
2019-02-17T11:31:43.373Z,61.76
2019-02-17T11:32:43.339Z,61.86
2019-02-17T11:33:43.307Z,61.96
2019-02-17T11:34:43.298Z,62.07
2019-02-17T11:35:43.315Z,61.63
2019-02-17T11:36:43.306Z,61.43
2019-02-17T11:37:45.076Z,61.52
2019-02-17T11:38:43.249Z,61.73
2019-02-17T11:39:43.272Z,61.32
2019-02-17T11:40:43.226Z,60.71
2019-02-17T11:41:43.221Z,60.78
2019-02-17T11:42:43.203Z,60.88
2019-02-17T11:43:43.227Z,60.58
2019-02-17T11:44:43.186Z,61.09
2019-02-17T11:45:43.181Z,61.36
2019-02-17T11:46:43.163Z,60.96
2019-02-17T11:47:43.162Z,60.75
2019-02-17T11:48:43.163Z,59.94
2019-02-17T11:49:43.130Z,60.35
2019-02-17T11:50:43.221Z,59.94
2019-02-17T11:51:43.122Z,59.53
2019-02-17T11:52:43.096Z,59.53
2019-02-17T11:53:43.093Z,59.73
2019-02-17T11:54:43.075Z,59.91
2019-02-17T11:55:43.086Z,59.70
2019-02-17T11:56:43.081Z,59.91
2019-02-17T11:57:43.040Z,60.31
2019-02-17T11:58:43.027Z,60.42
2019-02-17T11:59:43.048Z,60.01
2019-02-17T12:00:43.021Z,59.91
2019-02-17T12:01:43.000Z,60.01
2019-02-17T12:02:42.984Z,59.19
2019-02-17T12:03:42.980Z,58.96
2019-02-17T12:04:42.983Z,59.06
2019-02-17T12:05:42.953Z,59.27
2019-02-17T12:06:42.954Z,59.16
2019-02-17T12:07:42.931Z,58.96
2019-02-17T12:08:42.926Z,59.23
2019-02-17T12:09:43.138Z,59.03
2019-02-17T12:10:42.905Z,59.03
2019-02-17T12:11:42.926Z,58.83
2019-02-17T12:12:42.898Z,59.23
2019-02-17T12:13:42.879Z,59.23
2019-02-17T12:14:42.865Z,58.39
2019-02-17T12:15:42.870Z,59.00
2019-02-17T12:16:42.867Z,59.21
2019-02-17T12:17:42.835Z,59.14
2019-02-17T12:18:42.812Z,58.19
2019-02-17T12:19:43.096Z,58.62
2019-02-17T12:20:42.792Z,57.81
2019-02-17T12:21:42.777Z,57.48
2019-02-17T12:22:42.778Z,57.27
2019-02-17T12:23:42.773Z,56.66
2019-02-17T12:24:42.830Z,56.56
2019-02-17T12:25:42.770Z,57.17
2019-02-17T12:26:42.791Z,56.66
2019-02-17T12:27:42.722Z,56.66
2019-02-17T12:28:42.696Z,57.27
2019-02-17T12:29:42.734Z,57.45
2019-02-17T12:30:42.716Z,56.96
2019-02-17T12:31:42.671Z,56.63
2019-02-17T12:32:42.694Z,56.63
2019-02-17T12:33:42.655Z,56.43
2019-02-17T12:34:42.636Z,56.84
2019-02-17T12:35:42.659Z,56.43
2019-02-17T12:36:42.613Z,56.71
2019-02-17T12:37:42.631Z,56.10
2019-02-17T12:38:42.594Z,56.81
2019-02-17T12:39:42.584Z,56.71
2019-02-17T12:40:42.600Z,56.10
2019-02-17T12:41:42.560Z,55.69
2019-02-17T12:42:42.598Z,55.56
2019-02-17T12:43:42.540Z,55.66
2019-02-17T12:44:42.526Z,55.97
2019-02-17T12:45:42.515Z,57.09
2019-02-17T12:46:42.502Z,56.07
2019-02-17T12:47:42.493Z,55.35
2019-02-17T12:48:42.524Z,54.03
2019-02-17T12:49:42.489Z,54.44
2019-02-17T12:50:42.472Z,54.74
2019-02-17T12:51:42.466Z,54.41
2019-02-17T12:52:47.300Z,54.51